createdAt,value
2022-08-12T00:04:53.695Z,17.92
2022-08-12T00:10:15.451Z,17.86
2022-08-12T00:15:38.025Z,17.76
2022-08-12T00:21:01.332Z,17.70
2022-08-12T00:26:24.629Z,17.68
2022-08-12T00:31:46.725Z,17.71
2022-08-12T00:37:14.592Z,17.67
2022-08-12T00:42:20.198Z,17.59
2022-08-12T00:47:25.892Z,17.53
2022-08-12T00:52:29.406Z,17.44
2022-08-12T00:57:37.495Z,17.40
2022-08-12T01:02:51.816Z,17.38
2022-08-12T01:08:14.565Z,17.35
2022-08-12T01:13:20.358Z,17.42
2022-08-12T01:18:31.730Z,17.52
2022-08-12T01:24:00.640Z,17.55
2022-08-12T01:29:35.329Z,17.52
2022-08-12T01:34:41.652Z,17.45
2022-08-12T01:40:35.139Z,17.43
2022-08-12T01:45:24.827Z,17.32
2022-08-12T01:51:40.746Z,17.18
2022-08-12T01:56:59.299Z,17.12
2022-08-12T02:02:09.457Z,17.20
2022-08-12T02:08:05.429Z,17.22
2022-08-12T02:13:41.994Z,17.16
2022-08-12T02:19:27.841Z,17.07
2022-08-12T02:24:34.404Z,17.02
2022-08-12T02:29:39.307Z,16.97
2022-08-12T02:34:45.026Z,16.95
2022-08-12T02:39:54.566Z,16.94
2022-08-12T02:45:01.167Z,16.89
2022-08-12T02:50:05.977Z,16.87
2022-08-12T02:55:28.575Z,16.81
2022-08-12T03:00:40.054Z,16.77
2022-08-12T03:06:00.381Z,16.77
2022-08-12T03:11:38.964Z,16.77
2022-08-12T03:16:55.132Z,16.84
2022-08-12T03:22:13.596Z,16.93
2022-08-12T03:27:17.375Z,17.01
2022-08-12T03:32:35.119Z,16.99
2022-08-12T03:37:41.771Z,16.98
2022-08-12T03:43:06.853Z,16.96
2022-08-12T03:48:34.494Z,16.94
2022-08-12T03:53:56.581Z,16.84
2022-08-12T03:59:21.175Z,16.80
2022-08-12T04:04:35.613Z,16.78
2022-08-12T04:09:42.969Z,16.73
2022-08-12T04:14:47.039Z,16.72
2022-08-12T04:19:50.636Z,16.77
2022-08-12T04:24:54.567Z,16.86
2022-08-12T04:30:20.997Z,17.02
2022-08-12T04:35:21.737Z,17.19
2022-08-12T04:40:28.055Z,17.44
2022-08-12T04:45:34.900Z,17.68
2022-08-12T04:50:39.265Z,18.16
2022-08-12T04:55:43.237Z,18.93
2022-08-12T05:00:46.250Z,19.73
2022-08-12T05:05:49.142Z,20.53
2022-08-12T05:10:53.406Z,21.20
2022-08-12T05:16:05.003Z,21.72
2022-08-12T05:21:09.985Z,22.15
2022-08-12T05:26:13.343Z,22.47
2022-08-12T05:31:47.670Z,22.62
2022-08-12T05:36:44.356Z,22.82
2022-08-12T05:41:47.364Z,22.92
2022-08-12T05:46:50.373Z,23.01
2022-08-12T05:51:53.702Z,23.08
2022-08-12T05:56:57.192Z,23.10
2022-08-12T06:02:09.955Z,23.07
2022-08-12T06:07:37.393Z,23.14
2022-08-12T06:12:37.975Z,23.09
2022-08-12T06:17:41.014Z,23.14
2022-08-12T06:22:45.433Z,23.04
2022-08-12T06:28:06.634Z,22.89
2022-08-12T06:33:22.055Z,22.75
2022-08-12T06:38:27.634Z,22.68
2022-08-12T06:43:31.226Z,22.64
2022-08-12T06:48:59.454Z,22.63
2022-08-12T06:54:03.148Z,22.66
2022-08-12T06:59:06.178Z,22.77
2022-08-12T07:04:33.803Z,22.83
2022-08-12T07:10:06.819Z,22.84
2022-08-12T07:14:58.632Z,22.79
2022-08-12T07:20:04.477Z,22.82
2022-08-12T07:25:27.148Z,22.82
2022-08-12T07:30:35.197Z,22.78
2022-08-12T07:35:48.446Z,22.70
2022-08-12T07:41:02.271Z,22.65
2022-08-12T07:46:07.954Z,22.63
2022-08-12T07:51:12.045Z,22.57
2022-08-12T07:56:31.354Z,22.66
2022-08-12T08:01:38.048Z,22.80
2022-08-12T08:06:43.328Z,22.83
2022-08-12T08:12:04.877Z,22.83
2022-08-12T08:17:07.908Z,22.72
2022-08-12T08:22:10.915Z,22.66
2022-08-12T08:27:13.958Z,22.63
2022-08-12T08:32:17.874Z,22.65
2022-08-12T08:37:21.184Z,22.70
2022-08-12T08:42:40.633Z,22.74
2022-08-12T08:47:48.616Z,22.74
2022-08-12T08:52:51.599Z,22.73
2022-08-12T08:57:55.039Z,22.70
2022-08-12T09:02:59.923Z,22.83
2022-08-12T09:08:14.221Z,23.02
2022-08-12T09:13:29.116Z,23.11
2022-08-12T09:24:20.036Z,23.06
2022-08-12T09:30:10.308Z,23.03
2022-08-12T09:34:50.774Z,23.01
2022-08-12T09:40:05.801Z,23.01
2022-08-12T09:46:05.471Z,23.05
2022-08-12T09:50:52.037Z,23.13
2022-08-12T09:56:07.200Z,23.26
2022-08-12T10:01:23.441Z,23.32
2022-08-12T10:06:32.195Z,23.32
2022-08-12T10:12:12.095Z,23.34
2022-08-12T10:17:16.186Z,23.27
2022-08-12T10:22:38.851Z,23.27
2022-08-12T10:28:04.915Z,23.32
2022-08-12T10:33:17.971Z,23.34
2022-08-12T10:38:34.509Z,23.33
2022-08-12T10:43:55.899Z,23.33
2022-08-12T10:49:06.661Z,23.36
2022-08-12T10:54:28.195Z,23.38
2022-08-12T11:00:29.487Z,23.38
2022-08-12T11:05:00.413Z,23.34
2022-08-12T11:10:26.388Z,23.33
2022-08-12T11:16:02.688Z,23.29
2022-08-12T11:20:54.495Z,23.35
2022-08-12T11:26:05.483Z,23.38
2022-08-12T11:31:13.948Z,23.42
2022-08-12T11:36:21.861Z,23.46
2022-08-12T11:41:31.246Z,23.51
2022-08-12T11:46:39.481Z,23.52
2022-08-12T11:51:42.529Z,23.51
2022-08-12T11:56:52.443Z,23.46
2022-08-12T12:02:05.124Z,23.41
2022-08-12T12:07:11.240Z,23.41
2022-08-12T12:12:15.478Z,23.41
2022-08-12T12:17:18.488Z,23.41
2022-08-12T12:22:32.014Z,23.40
2022-08-12T12:28:05.831Z,23.38
2022-08-12T12:33:18.099Z,23.39
2022-08-12T12:38:25.183Z,23.37
2022-08-12T12:43:42.475Z,23.33
2022-08-12T12:48:46.310Z,23.28
2022-08-12T12:54:08.368Z,23.30
2022-08-12T12:59:54.624Z,23.36
2022-08-12T13:04:37.389Z,23.39
2022-08-12T13:09:40.927Z,23.34
2022-08-12T13:14:50.201Z,23.27
2022-08-12T13:19:54.808Z,23.23
2022-08-12T13:25:01.873Z,23.22
2022-08-12T13:30:12.577Z,23.20
2022-08-12T13:35:20.036Z,23.17
2022-08-12T13:40:40.182Z,23.17
2022-08-12T13:45:43.769Z,23.20
2022-08-12T13:50:47.801Z,23.17
2022-08-12T13:56:01.550Z,23.12
2022-08-12T14:01:06.127Z,23.04
2022-08-12T14:06:12.403Z,22.99
2022-08-12T14:11:25.282Z,22.92
2022-08-12T14:16:48.175Z,22.88
2022-08-12T14:22:01.586Z,22.83
2022-08-12T14:27:09.187Z,22.85
2022-08-12T14:32:16.546Z,22.75
2022-08-12T14:37:58.197Z,22.59
2022-08-12T14:42:46.903Z,22.43
2022-08-12T14:47:58.588Z,22.28
2022-08-12T14:58:27.234Z,22.20
2022-08-12T15:03:52.255Z,22.16
2022-08-12T15:08:57.276Z,22.10
2022-08-12T15:14:00.835Z,22.04
2022-08-12T15:20:12.121Z,21.95
2022-08-12T15:24:33.628Z,21.79
2022-08-12T15:29:37.687Z,21.68
2022-08-12T15:34:40.744Z,21.61
2022-08-12T15:39:55.202Z,21.57
2022-08-12T15:45:08.739Z,21.56
2022-08-12T15:50:21.595Z,21.56
2022-08-12T15:55:31.367Z,21.52
2022-08-12T16:00:40.048Z,21.49
2022-08-12T16:06:12.576Z,21.44
2022-08-12T16:11:15.551Z,21.43
2022-08-12T16:16:23.575Z,21.41
2022-08-12T16:21:52.972Z,21.46
2022-08-12T16:26:55.376Z,21.47
2022-08-12T16:31:59.690Z,21.41
2022-08-12T16:37:13.523Z,21.35
2022-08-12T16:42:20.903Z,21.29
2022-08-12T16:47:23.928Z,21.29
2022-08-12T16:52:30.489Z,21.35
2022-08-12T16:57:34.825Z,21.36
2022-08-12T17:02:40.592Z,21.35
2022-08-12T17:07:52.102Z,21.30
2022-08-12T17:12:56.032Z,21.23
2022-08-12T17:18:15.211Z,21.18
2022-08-12T17:23:48.721Z,21.25
2022-08-12T17:29:00.864Z,21.21
2022-08-12T17:34:17.697Z,21.14
2022-08-12T17:39:23.588Z,21.03
2022-08-12T17:44:26.733Z,20.91
2022-08-12T17:50:02.961Z,20.87
2022-08-12T17:55:02.918Z,20.86
2022-08-12T18:00:18.329Z,20.88
2022-08-12T18:05:23.010Z,20.98
2022-08-12T18:10:45.249Z,20.99
2022-08-12T18:16:06.762Z,20.89
2022-08-12T18:21:12.002Z,20.84
2022-08-12T18:26:22.220Z,20.82
2022-08-12T18:31:44.679Z,20.84
2022-08-12T18:36:59.803Z,20.92
2022-08-12T18:42:24.625Z,20.97
2022-08-12T18:47:50.273Z,20.99
2022-08-12T18:53:07.911Z,20.94
2022-08-12T18:58:59.397Z,20.94
2022-08-12T19:04:06.740Z,20.96
2022-08-12T19:09:57.400Z,20.97
2022-08-12T19:15:05.091Z,20.92
2022-08-12T19:20:17.081Z,20.91
2022-08-12T19:25:23.781Z,20.87
2022-08-12T19:31:05.411Z,20.88
2022-08-12T19:36:25.120Z,20.90
2022-08-12T19:41:42.550Z,20.89
2022-08-12T19:46:53.928Z,20.73
2022-08-12T19:51:57.052Z,20.56
2022-08-12T19:57:01.670Z,20.53
2022-08-12T20:02:11.744Z,20.51
2022-08-12T20:07:23.176Z,20.55
2022-08-12T20:12:34.525Z,20.59
2022-08-12T20:17:50.997Z,20.65
2022-08-12T20:22:56.016Z,20.62
2022-08-12T20:28:04.688Z,20.55
2022-08-12T20:33:18.703Z,20.48
2022-08-12T20:38:27.999Z,20.49
2022-08-12T20:43:35.882Z,20.51
2022-08-12T20:48:44.377Z,20.44
2022-08-12T20:53:57.776Z,20.31
2022-08-12T20:59:19.749Z,20.29
2022-08-12T21:04:43.936Z,20.27
2022-08-12T21:09:50.168Z,20.26
2022-08-12T21:15:17.363Z,20.26
2022-08-12T21:20:24.262Z,20.22
2022-08-12T21:25:45.472Z,20.18
2022-08-12T21:30:55.152Z,20.13
2022-08-12T21:36:14.365Z,20.12
2022-08-12T21:41:35.690Z,20.13
2022-08-12T21:46:47.787Z,20.11
2022-08-12T21:51:57.027Z,20.18
2022-08-12T21:57:00.063Z,20.20
2022-08-12T22:02:02.941Z,20.27
2022-08-12T22:07:07.053Z,20.27
2022-08-12T22:12:28.615Z,20.25
2022-08-12T22:17:49.886Z,20.22
2022-08-12T22:23:00.422Z,20.21
2022-08-12T22:28:24.611Z,20.21
2022-08-12T22:33:28.007Z,20.24
2022-08-12T22:38:31.720Z,20.31
2022-08-12T22:44:00.344Z,20.35
2022-08-12T22:49:06.678Z,20.34
2022-08-12T22:54:35.867Z,20.26
2022-08-12T22:59:51.264Z,20.20
2022-08-12T23:04:58.962Z,20.24
2022-08-12T23:10:02.289Z,20.28
2022-08-12T23:15:06.516Z,20.29
2022-08-12T23:20:13.096Z,20.25
2022-08-12T23:25:21.162Z,20.22
2022-08-12T23:30:31.801Z,20.23
2022-08-12T23:35:53.832Z,20.28
2022-08-12T23:41:03.964Z,20.34
2022-08-12T23:46:09.450Z,20.37
2022-08-12T23:51:23.641Z,20.38
2022-08-12T23:56:33.656Z,20.39
